METAR Data
IDs: Format: Raw Decoded Include TAF

Data at: 0851 UTC 26 Jan 2020

KMFI 260754Z AUTO 30011G19KT 10SM OVC009 M01/M03 A2985 RMK AO2 SLP121 T10061028
KMFI 260654Z AUTO 30011KT 10SM OVC009 M01/M03 A2985 RMK AO2 SLP121 T10061028
KMFI 260554Z AUTO 32011KT 10SM OVC009 00/M02 A2984 RMK AO2 SLP121 60000 T00001022 10011 20000 400170000 53004
KMFI 260511Z AUTO 31008KT 10SM OVC009 00/M02 A2984 RMK AO2 T00001022
KMFI 260454Z AUTO 30008KT 10SM OVC010 00/M02 A2984 RMK AO2 SNE0355 SLP119 P0000 T00001022
KMFI 260354Z AUTO 31008KT 7SM -SN OVC010 00/M02 A2984 RMK AO2 SNB41 CIG 008V012 SLP118 P0000 T00001017
KMFI 260254Z AUTO 30009KT 6SM BR OVC009 00/M02 A2983 RMK AO2 SNB28E39 CIG 006V012 SLP117 P0000 60000 T00001017 51003
KMFI 260154Z AUTO 31009KT 10SM OVC011 01/M02 A2983 RMK AO2 SLP115 T00061017
KMFI 260054Z AUTO 31007KT 10SM OVC011 01/M01 A2983 RMK AO2 SLP116 T00111011
KMFI 260005Z AUTO 32012KT 10SM OVC014 01/M01 A2982 RMK AO2 T00111011
KMFI 252354Z AUTO 32010KT 10SM OVC016 01/M01 A2982 RMK AO2 SLP113 60000 T00111011 10017 20006 53007
KMFI 252254Z AUTO 33014KT 10SM OVC017 01/M02 A2981 RMK AO2 SNE18 SLP108 P0000 T00111017
KMFI 252208Z AUTO 32009KT 3SM -SN BR BKN015 OVC020 01/M01 A2981 RMK AO2 P0000 T00061006
KMFI 252154Z AUTO 32011KT 4SM -SN BR BKN013 OVC020 01/M01 A2980 RMK AO2 SNB42 SLP106 P0000 T00111011
KMFI 252152Z AUTO 31011KT 5SM -SN BR BKN013 OVC020 01/M01 A2980 RMK AO2 SNB42 P0000
KMFI 252054Z AUTO 32011KT 10SM BKN018 BKN023 OVC055 02/M01 A2979 RMK AO2 SLP102 60000 T00171011 55001
KMFI 251954Z AUTO 34011KT 10SM OVC019 02/M02 A2979 RMK AO2 SLP100 T00171017
KMFI 251901Z AUTO 33009KT 10SM BKN016 OVC022 01/M02 A2979 RMK AO2 T00111017
KMFI 251854Z AUTO 32008KT 10SM BKN014 OVC022 01/M02 A2979 RMK AO2 SNB00E26 SLP103 P0000 T00111017
KMFI 251839Z AUTO 34008KT 10SM BKN017 OVC022 02/M02 A2979 RMK AO2 SNB00E26 P0000 T00171017
KMFI 251754Z AUTO 36010KT 10SM OVC014 01/M02 A2979 RMK AO2 SNB07E23 SLP102 P0000 60000 T00111017 10017 20000 58001
KMFI 251654Z AUTO 35007KT 8SM BKN012 BKN036 OVC070 01/M02 A2980 RMK AO2 SNB40E50 SLP104 P0000 T00111017
KMFI 251629Z AUTO 34009KT 10SM BKN013 OVC060 01/M02 A2980 RMK AO2 T00061017
KMFI 251622Z AUTO 35009KT 10SM BKN009 BKN013 OVC070 01/M02 A2980 RMK AO2 T00061017
KMFI 251554Z AUTO 34011KT 10SM BKN011 BKN036 OVC090 01/M02 A2980 RMK AO2 SNE42 SLP104 P0000 T00061017
KMFI 251550Z AUTO 34009KT 9SM BKN011 OVC036 01/M02 A2979 RMK AO2 SNE42 P0000
KMFI 251543Z AUTO 34010KT 6SM BR BKN009 OVC038 01/M02 A2979 RMK AO2 SNE42 P0000 T00061017
KMFI 251454Z AUTO 36008KT 3SM -SN BR SCT007 BKN042 OVC050 00/M02 A2979 RMK AO2 SNE35B44 SLP102 P0000 60000 T00001017 53006
KMFI 251435Z AUTO 35009KT 4SM BR SCT008 BKN040 OVC055 00/M02 A2979 RMK AO2 SNE35 P0000 T00001017
KMFI 251409Z AUTO 35010KT 2 1/2SM -SN BR SCT008 BKN038 OVC050 00/M02 A2979 RMK AO2 P0000 T00001017
KMFI 251354Z AUTO 35007KT 4SM -SN BR BKN008 BKN038 OVC050 00/M02 A2979 RMK AO2 SLP101 P0000 T00001017
KMFI 251347Z AUTO 35008KT 5SM -SN BR BKN008 BKN024 OVC050 00/M02 A2979 RMK AO2 P0000 T00001017
KMFI 251335Z AUTO 35008KT 2SM -SN BR BKN008 BKN011 OVC020 00/M02 A2978 RMK AO2 P0000 T00001017
KMFI 251311Z AUTO 34008KT 1 3/4SM -SN BR BKN008 OVC028 00/M02 A2978 RMK AO2 P0000 T00001017
KMFI 251307Z AUTO 34010KT 3SM -SN BR BKN008 OVC033 00/M02 A2978 RMK AO2 P0000 T00001017
KMFI 251254Z AUTO 34009KT 2 1/2SM -SN BR BKN008 OVC038 00/M02 A2977 RMK AO2 SLP096 P0000 T00001017
KMFI 251201Z AUTO 33009KT 3SM -SN BR OVC007 00/M02 A2977 RMK AO2 P0000 T00001017
KMFI 251154Z AUTO 34010KT 2 1/2SM -SN BR BKN006 OVC011 00/M02 A2977 RMK AO2 SLP096 P0000 60000 T00001017 10006 20000 55000
KMFI 251054Z AUTO 34010KT 2SM -SN BR BKN006 BKN018 OVC028 00/M01 A2977 RMK AO2 SLP094 P0000 T00001011
KMFI 251039Z AUTO 33009KT 2SM -SN BR BKN006 BKN012 OVC028 00/M01 A2977 RMK AO2 P0000 T00001011
KMFI 251025Z AUTO 34010KT 1 3/4SM -SN BR BKN008 OVC014 00/M01 A2977 RMK AO2 P0000 T00001011
KMFI 251008Z AUTO 34008KT 2SM -SN BR BKN007 BKN012 OVC028 00/M01 A2977 RMK AO2 CIG 004V011 P0000 T00001011
KMFI 251003Z AUTO 34008KT 1 3/4SM -SN BR SCT005 BKN010 OVC028 00/M01 A2977 RMK AO2 CIG 009V012 P0000 T00001011
KMFI 250954Z AUTO 34007KT 2 1/2SM -SN BR BKN005 BKN010 OVC028 00/M01 A2977 RMK AO2 SLP094 P0000 T00001011
KMFI 250924Z AUTO 34007KT 3SM -SN BR BKN006 OVC036 00/M01 A2977 RMK AO2 P0000 T00001011
KMFI 250918Z AUTO 33008KT 2 1/2SM -SN BR BKN005 BKN031 OVC055 00/M01 A2977 RMK AO2 P0000 T00001011
KMFI 250911Z AUTO 33008KT 2 1/2SM -SN BR SCT005 BKN031 OVC055 00/M01 A2977 RMK AO2 P0000 T00001011
KMFI 250858Z AUTO 34007KT 1 3/4SM -SN BR SCT005 OVC029 01/M01 A2977 RMK AO2 P0000 T00061011
KMFI 250854Z AUTO 34008KT 2SM -SN BR BKN005 BKN014 OVC035 01/M01 A2977 RMK AO2 SLP096 P0000 60000 T00061011 56010
KMFI 250845Z AUTO 35008KT 2 1/2SM -SN BR SCT005 BKN010 OVC044 01/M01 A2977 RMK AO2 P0000 T00061011
KMFI 250826Z AUTO 35006KT 3SM -SN BR BKN007 BKN014 OVC055 01/M01 A2978 RMK AO2 P0000 T00061011
KMFI 250814Z AUTO 35007KT 2 1/2SM -SN BR BKN007 OVC016 01/M01 A2978 RMK AO2 P0000 T00061011
KMFI 250803Z AUTO 35006KT 2SM -SN BR BKN005 OVC018 01/M01 A2978 RMK AO2 P0000 T00061006
KMFI 250754Z AUTO 35007KT 1 3/4SM -SN BR BKN005 BKN009 OVC021 01/M01 A2978 RMK AO2 SLP097 P0000 T00061006
KMFI 250746Z AUTO 35006KT 1 3/4SM -SN BR BKN006 OVC024 01/M01 A2978 RMK AO2 P0000 T00061011
KMFI 250742Z AUTO 35007KT 2SM -SN BR SCT006 BKN010 OVC026 01/M01 A2978 RMK AO2 P0000 T00061011
KMFI 250722Z AUTO 36007KT 3SM -SN BR SCT005 BKN010 OVC030 01/M01 A2978 RMK AO2 P0000 T00061011
KMFI 250716Z AUTO 36007KT 2 1/2SM -SN BR BKN005 BKN009 OVC025 01/M01 A2978 RMK AO2 P0000 T00061006
KMFI 250701Z AUTO 35007KT 1 3/4SM -SN BR BKN005 BKN010 OVC023 01/M01 A2979 RMK AO2 P0000 T00061006
KMFI 250654Z AUTO 36007KT 2SM -SN BR BKN005 OVC026 01/M01 A2979 RMK AO2 SLP103 P0000 T00061006
KMFI 250633Z AUTO 35007KT 2 1/2SM -SN BR BKN005 OVC025 01/M01 A2980 RMK AO2 P0000 T00061006
KMFI 250605Z AUTO 36007KT 2 1/2SM -SN BR BKN006 OVC026 01/M01 A2980 RMK AO2 P0000 T00061006
KMFI 250554Z AUTO 36005KT 2 1/2SM -SN BR SCT006 OVC022 01/M01 A2981 RMK AO2 SNB09 SLP107 P0000 60000 T00061006 10011 20006 400171017 56004
KMFI 250550Z AUTO 35005KT 2SM -SN BR SCT006 OVC020 01/M01 A2981 RMK AO2 SNB09 P0000
KMFI 250540Z AUTO 35006KT 1 3/4SM -SN BR SCT007 OVC016 01/M01 A2981 RMK AO2 SNB09 P0000 T00061006
KMFI 250528Z AUTO 35006KT 1 1/2SM -SN BR SCT008 OVC014 01/M01 A2981 RMK AO2 SNB09 P0000 T00061006
KMFI 250515Z AUTO 01005KT 2 1/2SM -SN BR FEW008 BKN013 OVC017 01/M01 A2981 RMK AO2 SNB09 P0000 T00061011
KMFI 250454Z AUTO 36006KT 8SM OVC013 01/M01 A2981 RMK AO2 SLP108 T00061011
KMFI 250406Z AUTO 36006KT 9SM OVC010 01/M01 A2982 RMK AO2 CIG 007V013 T00061011
KMFI 250354Z AUTO 36006KT 9SM OVC008 01/M01 A2982 RMK AO2 CIG 006V012 SLP112 T00061006
KMFI 250254Z AUTO 02006KT 7SM OVC007 01/M01 A2983 RMK AO2 SLP115 T00061006 58007
KMFI 250154Z AUTO 03007KT 8SM OVC007 01/M01 A2984 RMK AO2 CIG 006V010 SLP118 T00061006
KMFI 250054Z AUTO 03007KT 7SM BKN006 OVC017 01/M01 A2985 RMK AO2 CIG 005V011 SLP123 T00111006
KMFI 242354Z AUTO 03006KT 4SM BR OVC006 01/M01 A2985 RMK AO2 CIG 004V010 SLP123 60000 T00061006 10017 20006 58006
KMFI 242326Z AUTO 02007KT 3SM BR BKN006 OVC036 01/M01 A2986 RMK AO2 T00061006
KMFI 242319Z AUTO 02006KT 3SM BR BKN005 OVC028 01/M01 A2986 RMK AO2 T00061006
KMFI 242309Z AUTO 02006KT 2 1/2SM BR BKN005 BKN011 OVC030 01/M01 A2986 RMK AO2 T00061006
KMFI 242254Z AUTO 02006KT 2 1/2SM BR BKN006 BKN011 OVC034 01/M01 A2986 RMK AO2 SNE18 SLP126 P0000 T00111006
KMFI 242228Z AUTO 03006KT 3SM BR BKN005 OVC033 01/M01 A2986 RMK AO2 SNE18 P0000 T00111006
KMFI 242223Z AUTO 03007KT 2 1/2SM BR BKN006 OVC030 01/M01 A2986 RMK AO2 SNE18 P0000 T00111006
KMFI 242202Z AUTO 04005KT 1 1/2SM -SN BR OVC006 01/M01 A2987 RMK AO2 P0000 T00111006
KMFI 242154Z AUTO 03005KT 2SM -SN BR OVC005 01/M01 A2987 RMK AO2 SNB01 SLP128 P0000 T00111006
KMFI 242132Z AUTO 03005KT 2 1/2SM -SN BR BKN005 OVC022 01/M01 A2986 RMK AO2 SNB01 P0000 T00111006
KMFI 242103Z AUTO 05007KT 2 1/2SM -SN BR BKN008 OVC014 01/M01 A2987 RMK AO2 SNB01 P0000 T00111006
KMFI 242054Z AUTO 04006KT 4SM BR BKN010 OVC014 01/M01 A2987 RMK AO2 SLP129 T00111006 56013